Time;durP1;ratioP1;P1;durP2;ratioP2;P2;SDS_P1;SDS_P2;PMS_P1;PMS_P2;Temp;Humidity;BMP_temperature;BMP_pressure;BME280_temperature;BME280_humidity;BME280_pressure;Samples;Min_cycle;Max_cycle;Signal;HPM_P1;HPM_P2
2023/04/09 00:01:40;;;;;;;10.13;6.53;;;;;;;3.95;100.00;99523.69;4977822;28;20080;-76
2023/04/09 00:04:05;;;;;;;12.18;6.88;;;;;;;3.84;100.00;99497.09;4971937;28;20031;-76
2023/04/09 00:06:31;;;;;;;11.68;6.35;;;;;;;3.93;100.00;99502.44;5005560;28;20097;-77
2023/04/09 00:08:56;;;;;;;11.15;6.00;;;;;;;3.92;100.00;99515.94;4985924;28;20045;-76
2023/04/09 00:11:21;;;;;;;9.65;6.03;;;;;;;3.97;100.00;99507.50;4990343;28;20477;-77
2023/04/09 00:13:46;;;;;;;13.90;7.43;;;;;;;3.87;100.00;99500.31;4972243;28;20026;-79
2023/04/09 00:16:12;;;;;;;12.27;7.03;;;;;;;3.89;100.00;99514.41;4974051;28;20034;-79
2023/04/09 00:18:37;;;;;;;11.73;5.97;;;;;;;3.68;100.00;99487.81;4969259;28;20034;-78
2023/04/09 00:21:03;;;;;;;12.15;7.30;;;;;;;3.79;100.00;99502.84;5002850;28;20037;-78
2023/04/09 00:23:28;;;;;;;13.25;7.75;;;;;;;3.79;100.00;99496.66;4995974;28;20113;-77
2023/04/09 00:25:53;;;;;;;11.40;7.32;;;;;;;3.87;100.00;99502.16;4977580;28;20026;-77
2023/04/09 00:28:18;;;;;;;11.57;7.00;;;;;;;3.82;100.00;99480.31;4982456;28;20068;-78
2023/04/09 00:30:44;;;;;;;13.30;7.05;;;;;;;4.02;100.00;99500.72;4973152;28;20069;-78
2023/04/09 00:33:09;;;;;;;11.98;6.45;;;;;;;4.08;100.00;99505.47;4993607;28;20034;-78
2023/04/09 00:35:35;;;;;;;10.75;6.13;;;;;;;4.03;100.00;99488.16;4989429;28;20536;-77
2023/04/09 00:38:00;;;;;;;12.15;6.55;;;;;;;4.17;100.00;99485.03;4989088;28;20026;-77
2023/04/09 00:40:25;;;;;;;11.90;6.88;;;;;;;4.14;100.00;99464.75;5003984;28;20491;-79
2023/04/09 00:42:51;;;;;;;11.57;6.38;;;;;;;4.34;100.00;99489.63;4976669;28;20023;-79
2023/04/09 00:45:16;;;;;;;12.48;6.70;;;;;;;4.27;100.00;99479.63;4977839;28;20045;-79
2023/04/09 00:47:44;;;;;;;12.45;6.65;;;;;;;4.38;100.00;99487.50;4976753;28;20443;-78
2023/04/09 00:50:09;;;;;;;10.95;6.22;;;;;;;4.36;100.00;99494.84;4977427;28;20026;-79
2023/04/09 00:52:35;;;;;;;12.88;6.20;;;;;;;4.32;100.00;99486.25;4976611;28;20484;-78
2023/04/09 00:55:03;;;;;;;12.18;6.65;;;;;;;4.20;100.00;99457.13;4976454;28;20149;-78
2023/04/09 00:57:29;;;;;;;11.65;6.00;;;;;;;4.33;100.00;99484.44;4987374;28;20124;-77
2023/04/09 00:59:54;;;;;;;10.98;6.65;;;;;;;4.43;100.00;99495.94;4992551;28;20034;-78
2023/04/09 01:02:20;;;;;;;11.23;6.13;;;;;;;4.17;100.00;99451.06;4993074;28;20057;-78
2023/04/09 01:04:46;;;;;;;10.63;5.85;;;;;;;4.15;100.00;99455.72;4993101;28;20027;-78
2023/04/09 01:07:36;;;;;;;10.20;5.18;;;;;;;4.28;100.00;99490.22;4984938;28;20037;-78
2023/04/09 01:10:16;;;;;;;14.50;6.55;;;;;;;4.23;100.00;99492.47;4994401;28;20034;-79
2023/04/09 01:12:53;;;;;;;13.80;6.63;;;;;;;4.26;100.00;99494.03;4983550;28;20031;-77
2023/04/09 01:15:30;;;;;;;13.77;6.60;;;;;;;4.15;100.00;99477.13;4976787;28;20030;-78
2023/04/09 01:18:02;;;;;;;13.05;6.13;;;;;;;4.18;100.00;99486.72;4977942;28;20556;-79
2023/04/09 01:20:53;;;;;;;13.93;7.18;;;;;;;4.14;100.00;99475.47;4976314;28;20057;-78
2023/04/09 01:23:33;;;;;;;17.13;8.02;;;;;;;4.06;100.00;99471.81;4996687;28;20077;-77
2023/04/09 01:26:21;;;;;;;20.95;8.68;;;;;;;4.20;100.00;99492.78;4976306;28;20084;-77
2023/04/09 01:28:51;;;;;;;27.05;10.30;;;;;;;4.13;100.00;99476.44;4977644;28;20022;-77
2023/04/09 01:31:19;;;;;;;20.95;10.18;;;;;;;4.10;100.00;99474.06;4975150;28;20026;-77
2023/04/09 01:33:45;;;;;;;20.25;10.02;;;;;;;4.18;100.00;99468.81;4976184;28;20480;-77
2023/04/09 01:36:12;;;;;;;16.52;7.68;;;;;;;4.37;100.00;99481.28;4976140;28;20034;-78
2023/04/09 01:38:40;;;;;;;18.65;8.25;;;;;;;4.40;100.00;99474.78;4976442;28;20034;-76
2023/04/09 01:41:10;;;;;;;13.13;7.40;;;;;;;4.38;100.00;99460.72;4992251;28;20034;-78
2023/04/09 01:43:36;;;;;;;12.77;7.25;;;;;;;4.40;100.00;99464.06;4985411;28;20060;-78
2023/04/09 01:46:02;;;;;;;12.98;7.53;;;;;;;4.31;100.00;99463.13;4991686;28;20042;-78
2023/04/09 01:48:30;;;;;;;12.52;7.30;;;;;;;4.34;100.00;99478.91;5000613;28;20029;-79
2023/04/09 01:50:56;;;;;;;13.00;7.50;;;;;;;4.42;100.00;99491.56;4983421;28;20646;-79
2023/04/09 01:53:22;;;;;;;14.52;6.97;;;;;;;4.24;100.00;99474.56;4994475;28;20499;-79
2023/04/09 01:55:47;;;;;;;15.07;7.97;;;;;;;4.18;100.00;99476.84;4975404;28;20022;-78
2023/04/09 01:58:12;;;;;;;13.25;7.88;;;;;;;4.00;100.00;99457.16;4995240;28;20041;-79
2023/04/09 02:00:42;;;;;;;13.73;7.65;;;;;;;4.21;100.00;99497.13;4976542;28;20034;-79
2023/04/09 02:03:23;;;;;;;18.10;7.20;;;;;;;4.23;100.00;99499.69;4994823;28;20034;-78
2023/04/09 02:06:04;;;;;;;13.35;7.47;;;;;;;3.97;100.00;99444.06;4984380;28;20165;-78
2023/04/09 02:08:30;;;;;;;15.32;7.38;;;;;;;4.34;100.00;99491.47;4987740;28;20023;-77
2023/04/09 02:10:59;;;;;;;14.77;6.85;;;;;;;4.34;100.00;99497.66;4974084;28;20126;-77
2023/04/09 02:13:26;;;;;;;14.02;7.25;;;;;;;4.36;100.00;99501.03;4999763;28;20026;-78
2023/04/09 02:15:52;;;;;;;14.00;7.28;;;;;;;4.36;100.00;99501.03;4974037;28;20034;-78
2023/04/09 02:18:28;;;;;;;14.13;6.15;;;;;;;4.17;100.00;99469.81;4976679;28;20045;-77
2023/04/09 02:20:55;;;;;;;14.13;7.47;;;;;;;4.25;100.00;99478.97;4992082;28;20029;-78
2023/04/09 02:23:21;;;;;;;12.77;7.07;;;;;;;4.34;100.00;99491.47;4980960;28;20361;-78
2023/04/09 02:25:46;;;;;;;14.07;7.53;;;;;;;4.28;100.00;99478.66;4975444;28;20041;-78
2023/04/09 02:28:12;;;;;;;15.57;7.97;;;;;;;4.28;100.00;99475.97;4975024;28;20030;-77
2023/04/09 02:30:37;;;;;;;15.80;7.00;;;;;;;3.92;100.00;99411.53;4993141;28;20026;-78
2023/04/09 02:33:02;;;;;;;17.40;8.00;;;;;;;4.46;100.00;99484.09;5000778;28;20030;-78
2023/04/09 02:35:27;;;;;;;16.15;7.50;;;;;;;4.30;100.00;99452.59;4993620;28;20519;-77
2023/04/09 02:37:53;;;;;;;13.15;7.40;;;;;;;4.42;100.00;99466.63;4974969;28;20061;-78
2023/04/09 02:40:18;;;;;;;15.27;7.10;;;;;;;4.35;100.00;99458.34;4973902;28;20022;-79
2023/04/09 02:42:43;;;;;;;14.80;7.82;;;;;;;4.53;100.00;99491.41;4973694;28;20130;-78
2023/04/09 02:45:09;;;;;;;15.57;7.32;;;;;;;4.52;100.00;99491.53;5000250;28;20026;-79
2023/04/09 02:47:34;;;;;;;15.38;7.82;;;;;;;4.46;100.00;99468.03;4974949;28;20022;-78
2023/04/09 02:50:00;;;;;;;15.35;7.63;;;;;;;4.51;100.00;99487.19;4972560;28;20054;-76
2023/04/09 02:52:25;;;;;;;14.35;7.75;;;;;;;4.29;100.00;99454.38;4974289;28;20484;-77
2023/04/09 02:54:51;;;;;;;18.30;8.18;;;;;;;4.50;100.00;99486.31;4991671;28;20055;-78
2023/04/09 02:57:17;;;;;;;14.10;8.32;;;;;;;4.53;100.00;99486.03;4974520;28;20511;-78
2023/04/09 02:59:44;;;;;;;17.20;8.52;;;;;;;4.55;100.00;99492.06;4991544;28;20026;-79
2023/04/09 03:02:09;;;;;;;17.92;7.93;;;;;;;4.51;100.00;99479.13;4977996;28;20655;-79
2023/04/09 03:04:34;;;;;;;23.23;10.52;;;;;;;4.47;100.00;99475.88;4988795;28;20098;-79
2023/04/09 03:07:00;;;;;;;18.55;9.68;;;;;;;4.35;100.00;99458.34;4982711;28;20141;-77
2023/04/09 03:09:25;;;;;;;19.92;9.95;;;;;;;4.52;100.00;99459.38;4990298;28;20105;-77
2023/04/09 03:11:50;;;;;;;20.58;10.20;;;;;;;4.30;100.00;99429.31;4985223;28;20028;-77
2023/04/09 03:14:16;;;;;;;18.13;10.25;;;;;;;4.54;100.00;99477.00;4991714;28;20500;-77
2023/04/09 03:16:41;;;;;;;18.23;9.05;;;;;;;4.52;100.00;99470.94;4982839;28;20473;-76
2023/04/09 03:19:06;;;;;;;22.10;10.63;;;;;;;4.56;100.00;99458.94;4997081;28;20580;-77
2023/04/09 03:21:32;;;;;;;16.45;8.20;;;;;;;4.60;100.00;99451.44;4974813;28;20026;-77
2023/04/09 03:23:57;;;;;;;16.50;8.40;;;;;;;4.56;100.00;99452.75;4978061;28;20030;-77
2023/04/09 03:26:22;;;;;;;14.35;8.07;;;;;;;4.67;100.00;99459.75;4975229;28;20026;-78
2023/04/09 03:28:48;;;;;;;13.57;7.38;;;;;;;4.60;100.00;99446.06;4975871;28;20033;-78
2023/04/09 03:31:13;;;;;;;13.88;6.68;;;;;;;4.53;100.00;99459.25;4972220;28;20026;-79
2023/04/09 03:33:38;;;;;;;13.13;6.60;;;;;;;4.43;100.00;99439.69;4975872;28;20571;-77
2023/04/09 03:36:04;;;;;;;11.32;6.35;;;;;;;4.32;100.00;99435.38;4996757;28;20030;-77
2023/04/09 03:38:29;;;;;;;15.02;7.05;;;;;;;4.51;100.00;99474.63;5025587;22;20052;-67
2023/04/09 03:40:55;;;;;;;13.38;6.60;;;;;;;4.51;100.00;99477.31;4995554;28;20076;-67
2023/04/09 03:43:21;;;;;;;14.40;7.15;;;;;;;4.50;100.00;99472.06;4996384;28;20033;-67
2023/04/09 03:45:46;;;;;;;13.93;7.03;;;;;;;4.48;100.00;99474.91;5012234;28;20041;-67
2023/04/09 03:48:11;;;;;;;11.68;6.43;;;;;;;4.50;100.00;99474.75;4997191;28;20046;-68
2023/04/09 03:50:38;;;;;;;13.02;6.05;;;;;;;4.49;100.00;99473.06;5009043;28;20473;-67
2023/04/09 03:53:04;;;;;;;13.90;7.25;;;;;;;4.48;100.00;99474.91;5000914;28;20022;-67
2023/04/09 03:55:30;;;;;;;16.10;7.32;;;;;;;4.49;100.00;99473.91;4991124;28;20678;-67
2023/04/09 03:57:55;;;;;;;15.10;7.85;;;;;;;4.51;100.00;99471.94;5020374;28;20036;-67
2023/04/09 04:00:21;;;;;;;15.10;7.75;;;;;;;4.52;100.00;99480.81;4993256;28;20023;-67
2023/04/09 04:02:46;;;;;;;14.90;6.97;;;;;;;4.55;100.00;99476.00;4997101;28;20131;-68
2023/04/09 04:05:12;;;;;;;17.30;8.40;;;;;;;4.56;100.00;99474.19;4999861;28;20018;-67
2023/04/09 04:07:37;;;;;;;14.75;7.93;;;;;;;4.60;100.00;99471.03;4996051;28;20045;-68
2023/04/09 04:10:05;;;;;;;17.60;7.95;;;;;;;4.62;100.00;99468.22;4994707;28;20104;-67
2023/04/09 04:12:31;;;;;;;15.65;8.43;;;;;;;4.64;100.00;99468.06;5008521;28;20041;-68
2023/04/09 04:14:57;;;;;;;16.25;8.00;;;;;;;4.66;100.00;99474.09;5004594;28;20026;-68
2023/04/09 04:17:22;;;;;;;15.18;8.25;;;;;;;4.67;100.00;99470.47;4989984;28;20033;-67
2023/04/09 04:19:48;;;;;;;16.05;7.70;;;;;;;4.66;100.00;99474.09;4994503;28;20389;-67
2023/04/09 04:22:13;;;;;;;14.60;7.60;;;;;;;4.67;100.00;99473.13;5012607;28;20025;-68
2023/04/09 04:24:38;;;;;;;14.95;7.15;;;;;;;4.63;100.00;99485.13;4996684;28;20034;-67
2023/04/09 04:27:04;;;;;;;13.77;7.43;;;;;;;4.61;100.00;99478.09;4988281;28;20022;-68
2023/04/09 04:29:29;;;;;;;15.68;7.03;;;;;;;4.65;100.00;99484.00;5006116;28;20018;-67
2023/04/09 04:31:54;;;;;;;10.88;6.40;;;;;;;4.65;100.00;99489.34;4986007;28;20030;-67
2023/04/09 04:34:20;;;;;;;14.07;7.60;;;;;;;4.61;100.00;99486.13;4991614;28;20088;-67
2023/04/09 04:36:45;;;;;;;11.63;6.40;;;;;;;4.61;100.00;99487.94;4998069;28;20040;-68
2023/04/09 04:39:11;;;;;;;12.95;6.97;;;;;;;4.70;100.00;99494.28;4995769;28;20112;-68
2023/04/09 04:41:37;;;;;;;15.77;7.30;;;;;;;4.70;100.00;99492.44;5001096;28;20028;-68
2023/04/09 04:44:02;;;;;;;13.82;7.15;;;;;;;4.65;100.00;99494.72;5004925;28;20049;-67
2023/04/09 04:46:29;;;;;;;15.48;6.45;;;;;;;4.66;100.00;99500.91;5004147;28;20033;-68
2023/04/09 04:48:54;;;;;;;14.13;6.28;;;;;;;4.68;100.00;99491.72;4988198;28;20026;-67
2023/04/09 04:51:20;;;;;;;14.15;6.57;;;;;;;4.75;100.00;99500.03;5001540;28;20018;-68
2023/04/09 04:53:45;;;;;;;16.20;7.18;;;;;;;4.74;100.00;99485.78;5011732;28;20026;-68
2023/04/09 04:56:15;;;;;;;13.38;6.97;;;;;;;4.77;100.00;99498.06;5017347;28;20034;-67
2023/04/09 04:58:41;;;;;;;18.75;7.28;;;;;;;4.75;100.00;99498.19;5004775;28;20049;-68
2023/04/09 05:01:07;;;;;;;11.75;6.68;;;;;;;4.76;100.00;99499.03;4986746;28;20032;-68
2023/04/09 05:03:32;;;;;;;16.17;7.53;;;;;;;4.76;100.00;99485.63;4985366;28;20038;-67
2023/04/09 05:05:58;;;;;;;14.07;7.25;;;;;;;4.84;100.00;99496.44;5001219;28;20041;-67
2023/04/09 05:08:23;;;;;;;13.25;7.35;;;;;;;4.84;100.00;99494.59;4999046;28;20401;-67
2023/04/09 05:10:50;;;;;;;17.60;7.28;;;;;;;4.84;100.00;99497.28;4998340;28;20093;-68
2023/04/09 05:13:15;;;;;;;15.00;7.65;;;;;;;4.95;100.00;99498.94;4998991;28;20088;-67
2023/04/09 05:15:45;;;;;;;13.52;7.70;;;;;;;4.93;100.00;99494.72;4992396;28;20359;-67
2023/04/09 05:18:10;;;;;;;17.30;8.40;;;;;;;4.98;100.00;99493.28;5003425;28;20065;-67
2023/04/09 05:20:36;;;;;;;17.42;8.70;;;;;;;5.03;100.00;99493.66;5013721;28;20017;-67
2023/04/09 05:23:01;;;;;;;24.20;9.18;;;;;;;5.09;100.00;99497.56;4991214;28;20021;-68
2023/04/09 05:25:27;;;;;;;16.90;8.27;;;;;;;5.16;100.00;99500.47;4993914;28;20044;-67
2023/04/09 05:27:52;;;;;;;17.70;8.75;;;;;;;5.22;100.00;99499.91;5000912;28;20069;-69
2023/04/09 05:30:18;;;;;;;14.65;7.88;;;;;;;5.34;100.00;99497.81;4984388;28;20054;-68
2023/04/09 05:32:43;;;;;;;14.48;7.80;;;;;;;5.39;100.00;99498.22;4993310;28;20027;-68
2023/04/09 05:35:08;;;;;;;15.45;7.13;;;;;;;5.58;100.00;99500.75;5008578;28;20346;-69
2023/04/09 05:37:34;;;;;;;13.75;7.82;;;;;;;5.62;100.00;99498.59;4997209;28;20122;-68
2023/04/09 05:39:59;;;;;;;15.20;8.10;;;;;;;5.68;100.00;99500.66;5000347;28;20120;-68
2023/04/09 05:42:25;;;;;;;14.95;8.07;;;;;;;5.73;100.00;99498.34;4999725;28;20108;-68
2023/04/09 05:44:50;;;;;;;16.30;8.23;;;;;;;5.85;100.00;99497.09;4996473;28;20447;-68
2023/04/09 05:47:16;;;;;;;12.93;7.00;;;;;;;5.90;100.00;99494.78;4988190;28;20439;-68
2023/04/09 05:49:42;;;;;;;15.82;7.47;;;;;;;6.07;100.00;99498.47;4990202;28;20026;-67
2023/04/09 05:52:08;;;;;;;14.90;6.85;;;;;;;6.18;100.00;99500.03;5008406;28;20026;-68
2023/04/09 05:54:34;;;;;;;13.57;7.30;;;;;;;6.42;100.00;99485.06;4996081;28;20029;-68
2023/04/09 05:56:59;;;;;;;12.35;7.60;;;;;;;6.61;100.00;99484.84;4992890;28;20042;-68
2023/04/09 05:59:25;;;;;;;14.52;7.60;;;;;;;6.84;100.00;99485.13;4990753;28;20137;-68
2023/04/09 06:01:51;;;;;;;12.85;7.28;;;;;;;7.02;100.00;99480.47;4981803;28;20054;-69
2023/04/09 06:04:16;;;;;;;11.95;6.47;;;;;;;7.06;100.00;99486.34;4989120;28;20430;-69
2023/04/09 06:06:42;;;;;;;11.63;6.43;;;;;;;7.01;100.00;99481.44;4986483;28;20076;-69
2023/04/09 06:09:07;;;;;;;11.93;6.93;;;;;;;7.31;100.00;99489.06;4994420;28;20049;-65
2023/04/09 06:11:33;;;;;;;10.52;6.45;;;;;;;7.43;100.00;99495.84;4996758;28;20021;-66
2023/04/09 06:13:58;;;;;;;18.90;8.23;;;;;;;7.65;100.00;99484.44;4993599;28;20032;-68
2023/04/09 06:16:24;;;;;;;12.45;7.82;;;;;;;7.97;100.00;99490.81;4993165;28;20286;-68
2023/04/09 06:18:53;;;;;;;13.52;8.00;;;;;;;8.36;100.00;99482.00;4994805;28;20033;-68
2023/04/09 06:21:19;;;;;;;14.93;8.90;;;;;;;8.85;100.00;99481.00;4988054;28;20171;-68
2023/04/09 06:23:44;;;;;;;13.00;7.57;;;;;;;9.18;100.00;99481.69;4983278;28;20029;-67
2023/04/09 06:26:10;;;;;;;11.75;7.00;;;;;;;10.28;100.00;99484.88;4992534;28;20084;-67
2023/04/09 06:28:35;;;;;;;14.60;7.25;;;;;;;12.63;100.00;99465.47;5013619;28;20026;-67
2023/04/09 06:31:01;;;;;;;9.10;5.75;;;;;;;14.13;100.00;99466.28;4991521;28;20493;-67
2023/04/09 06:33:27;;;;;;;8.70;5.38;;;;;;;17.81;100.00;99453.97;5002549;28;20037;-68
2023/04/09 06:35:53;;;;;;;10.85;5.72;;;;;;;21.53;66.97;99443.75;4993493;28;20026;-66
2023/04/09 06:38:18;;;;;;;10.20;5.90;;;;;;;24.34;53.31;99450.69;4992033;28;20037;-66
2023/04/09 06:40:45;;;;;;;9.85;5.68;;;;;;;25.95;45.39;99454.19;4996683;28;20032;-66
2023/04/09 06:43:10;;;;;;;7.90;5.50;;;;;;;26.92;44.05;99446.09;4987058;28;20029;-69
2023/04/09 06:45:36;;;;;;;6.90;5.50;;;;;;;27.32;42.33;99451.16;4999908;28;20470;-67
2023/04/09 06:48:02;;;;;;;9.02;6.25;;;;;;;26.06;41.50;99451.34;4990878;28;20049;-68
2023/04/09 06:50:30;;;;;;;9.75;6.40;;;;;;;26.33;42.72;99462.78;5001175;28;20034;-68
2023/04/09 06:52:56;;;;;;;8.23;6.20;;;;;;;25.79;42.40;99461.78;5005603;28;20478;-68
2023/04/09 06:55:22;;;;;;;8.80;6.43;;;;;;;25.91;41.71;99453.13;4994233;28;20038;-68
2023/04/09 06:57:47;;;;;;;8.50;7.03;;;;;;;25.04;42.24;99458.25;4988974;28;20046;-67
2023/04/09 07:00:13;;;;;;;8.77;6.63;;;;;;;24.25;42.93;99461.44;4987799;28;20536;-67
2023/04/09 07:02:38;;;;;;;11.00;7.47;;;;;;;24.30;42.04;99463.38;4986558;28;20025;-67
2023/04/09 07:05:04;;;;;;;9.48;7.28;;;;;;;24.75;41.96;99456.13;4986117;28;20068;-67
2023/04/09 07:07:30;;;;;;;8.27;6.65;;;;;;;23.71;42.93;99466.63;4986960;28;20453;-66
2023/04/09 07:09:57;;;;;;;8.93;6.65;;;;;;;25.01;41.51;99454.13;4995405;28;20025;-66
2023/04/09 07:12:30;;;;;;;9.52;6.85;;;;;;;24.04;42.86;99462.56;5004809;28;20029;-66
2023/04/09 07:14:57;;;;;;;9.45;6.95;;;;;;;23.78;44.24;99465.28;5016390;28;20377;-67
2023/04/09 07:17:23;;;;;;;11.02;7.20;;;;;;;23.84;42.31;99463.38;4993688;28;20587;-69
2023/04/09 07:19:50;;;;;;;7.97;6.50;;;;;;;26.05;40.64;99463.56;4997089;28;20034;-69
2023/04/09 07:22:16;;;;;;;8.05;6.47;;;;;;;27.13;39.26;99472.50;4995799;28;20037;-67
2023/04/09 07:24:42;;;;;;;8.18;6.10;;;;;;;27.15;36.92;99474.97;4991604;28;20121;-67
2023/04/09 07:27:07;;;;;;;7.97;6.03;;;;;;;26.01;38.06;99478.00;5005032;28;20116;-68
2023/04/09 07:29:32;;;;;;;7.05;5.85;;;;;;;24.93;37.90;99480.44;5021239;28;20096;-68
2023/04/09 07:31:59;;;;;;;7.70;5.80;;;;;;;25.63;36.21;99484.34;4995157;28;20026;-68
2023/04/09 07:34:26;;;;;;;7.57;5.32;;;;;;;25.39;36.73;99473.94;5013256;28;20060;-67
2023/04/09 07:36:52;;;;;;;7.75;6.00;;;;;;;25.12;37.58;99471.53;4998261;28;20026;-67
2023/04/09 07:39:18;;;;;;;7.97;5.75;;;;;;;24.76;37.77;99479.09;4997098;28;20026;-67
2023/04/09 07:41:43;;;;;;;8.25;5.70;;;;;;;24.06;38.44;99477.75;5003466;28;20077;-67
2023/04/09 07:44:09;;;;;;;7.68;5.60;;;;;;;24.25;38.82;99480.81;5005831;28;20061;-67
2023/04/09 07:46:34;;;;;;;7.13;5.25;;;;;;;23.84;38.11;99479.94;4996859;28;20038;-68
2023/04/09 07:48:59;;;;;;;7.50;5.38;;;;;;;23.93;38.28;99478.31;5004277;28;20317;-68
2023/04/09 07:51:25;;;;;;;7.85;4.97;;;;;;;25.21;37.06;99475.41;5011994;28;20037;-68
2023/04/09 07:53:50;;;;;;;6.95;4.90;;;;;;;25.38;36.33;99472.25;5005639;28;20026;-67
2023/04/09 07:56:16;;;;;;;8.43;5.18;;;;;;;24.95;36.50;99471.88;5001355;28;20030;-67
2023/04/09 07:58:41;;;;;;;6.38;4.75;;;;;;;24.96;36.02;99472.69;5016457;28;20033;-67
2023/04/09 08:01:07;;;;;;;6.75;5.03;;;;;;;23.96;37.63;99479.69;4998385;28;20044;-67
2023/04/09 08:03:34;;;;;;;6.18;5.20;;;;;;;24.09;37.46;99472.81;4998067;28;20131;-66
2023/04/09 08:06:00;;;;;;;5.72;4.78;;;;;;;24.70;36.04;99472.75;4996167;28;20044;-66
2023/04/09 08:08:26;;;;;;;5.47;4.38;;;;;;;24.28;35.42;99480.25;5000768;28;20033;-66
2023/04/09 08:10:52;;;;;;;5.78;4.25;;;;;;;24.25;35.57;99483.56;4998100;28;20030;-67
2023/04/09 08:13:17;;;;;;;6.45;4.80;;;;;;;24.56;35.33;99483.59;5001310;28;20038;-66
2023/04/09 08:15:43;;;;;;;6.97;4.95;;;;;;;24.88;35.57;99482.41;4997468;28;20068;-66
2023/04/09 08:18:08;;;;;;;6.32;5.07;;;;;;;25.43;34.69;99477.78;5021621;28;20759;-65
2023/04/09 08:20:34;;;;;;;6.10;4.78;;;;;;;25.58;35.37;99477.69;4997214;28;20093;-65
2023/04/09 08:22:59;;;;;;;6.10;4.85;;;;;;;26.27;34.79;99483.34;5007080;28;20096;-65
2023/04/09 08:25:26;;;;;;;8.60;5.43;;;;;;;26.77;34.03;99486.78;4998573;28;20061;-65
2023/04/09 08:27:52;;;;;;;6.53;5.25;;;;;;;26.42;33.87;99483.22;4998554;28;20022;-65
2023/04/09 08:30:17;;;;;;;6.82;5.22;;;;;;;26.45;33.33;99485.38;4994843;28;20029;-66
2023/04/09 08:32:43;;;;;;;6.32;4.70;;;;;;;26.48;33.75;99483.97;4997391;28;20025;-66
2023/04/09 08:35:29;;;;;;;6.05;4.78;;;;;;;26.23;33.41;99488.66;5005114;28;20034;-66
2023/04/09 08:37:58;;;;;;;5.57;4.78;;;;;;;27.28;33.10;99491.78;5013421;28;20030;-66
2023/04/09 08:40:24;;;;;;;6.20;4.85;;;;;;;26.54;32.78;99493.13;4999658;28;20037;-65
2023/04/09 08:42:58;;;;;;;6.22;4.82;;;;;;;27.34;32.02;99491.72;4991200;28;20125;-66
2023/04/09 08:45:23;;;;;;;6.47;5.00;;;;;;;26.96;32.69;99492.41;4999873;28;20084;-66
2023/04/09 08:47:50;;;;;;;6.18;4.97;;;;;;;25.97;33.42;99490.78;4996043;28;20034;-65
2023/04/09 08:50:16;;;;;;;6.03;4.93;;;;;;;27.65;32.79;99483.78;4996379;28;20018;-65
2023/04/09 08:52:44;;;;;;;6.18;4.38;;;;;;;28.31;31.23;99484.75;4995659;28;20378;-65
2023/04/09 08:55:10;;;;;;;5.28;4.38;;;;;;;27.03;32.60;99490.09;5000069;28;20033;-65
2023/04/09 08:57:40;;;;;;;8.43;5.35;;;;;;;26.88;32.45;99488.34;5004532;28;20029;-65
2023/04/09 09:00:07;;;;;;;5.60;4.43;;;;;;;27.90;32.34;99490.94;4992481;28;20030;-65
2023/04/09 09:02:32;;;;;;;5.75;4.43;;;;;;;29.00;29.86;99496.03;5008863;28;20405;-65
2023/04/09 09:05:00;;;;;;;5.50;4.28;;;;;;;27.91;31.05;99498.19;4994168;28;20037;-65
2023/04/09 09:07:31;;;;;;;4.45;3.97;;;;;;;28.59;30.51;99494.03;5008544;28;20116;-70
2023/04/09 09:10:03;;;;;;;5.15;4.25;;;;;;;28.35;30.98;99486.63;5008246;28;20334;-63
2023/04/09 09:12:34;;;;;;;6.57;4.47;;;;;;;27.55;30.89;99495.88;4993955;28;20125;-65
2023/04/09 09:15:00;;;;;;;5.70;4.47;;;;;;;28.91;29.74;99498.72;4994068;28;20058;-66
2023/04/09 09:17:26;;;;;;;4.47;3.65;;;;;;;30.72;27.90;99495.19;4985402;28;20062;-65
2023/04/09 09:19:51;;;;;;;5.07;4.07;;;;;;;27.97;28.72;99491.41;4992870;28;20041;-65
2023/04/09 09:22:17;;;;;;;6.18;4.88;;;;;;;22.81;34.01;99498.00;4989181;28;20397;-66
2023/04/09 09:24:50;;;;;;;6.63;5.28;;;;;;;18.99;40.18;99509.69;5004174;28;20525;-67
2023/04/09 09:27:32;;;;;;;6.75;4.95;;;;;;;17.14;44.76;99500.56;4994015;28;20066;-66
2023/04/09 09:29:57;;;;;;;7.57;5.38;;;;;;;16.05;47.18;99513.78;4992953;28;20540;-65
2023/04/09 09:32:24;;;;;;;7.05;5.13;;;;;;;16.06;47.52;99518.22;4992348;28;20021;-60
2023/04/09 09:35:01;;;;;;;7.05;4.78;;;;;;;15.87;48.19;99513.72;4992123;28;20097;-64
2023/04/09 09:37:28;;;;;;;6.88;5.05;;;;;;;16.35;46.99;99508.50;4995504;28;20077;-58
2023/04/09 09:39:54;;;;;;;6.30;4.28;;;;;;;16.60;45.72;99507.63;5014459;23;20045;-71
2023/04/09 09:42:19;;;;;;;7.03;3.75;;;;;;;17.14;42.94;99481.44;5011131;28;20060;-70
2023/04/09 09:44:45;;;;;;;6.05;4.32;;;;;;;16.91;44.69;99503.16;5012387;28;20053;-70
2023/04/09 09:47:12;;;;;;;5.68;4.07;;;;;;;16.41;45.68;99504.03;5010678;28;20136;-70
2023/04/09 09:49:37;;;;;;;7.30;3.95;;;;;;;16.16;45.92;99504.03;5009392;28;20487;-70
2023/04/09 09:52:07;;;;;;;4.55;3.33;;;;;;;16.84;43.31;99504.03;5012706;28;20034;-70
2023/04/09 09:54:39;;;;;;;5.03;3.38;;;;;;;17.10;43.80;99504.81;5011374;28;20044;-70
2023/04/09 09:57:08;;;;;;;5.57;3.45;;;;;;;19.55;39.80;99498.19;4995470;28;20518;-70
2023/04/09 09:59:37;;;;;;;4.82;3.30;;;;;;;21.08;38.62;99494.41;4998755;28;20042;-70
2023/04/09 10:02:15;;;;;;;6.10;3.70;;;;;;;19.96;38.96;99493.47;5010260;28;20026;-70
2023/04/09 10:04:41;;;;;;;4.57;3.30;;;;;;;18.92;40.65;99500.75;5005085;28;20030;-71
2023/04/09 10:07:07;;;;;;;4.35;3.13;;;;;;;22.15;37.87;99483.72;5003015;28;20103;-71
2023/04/09 10:09:36;;;;;;;3.95;2.80;;;;;;;25.48;32.95;99463.91;4999940;28;20627;-70
2023/04/09 10:12:05;;;;;;;4.13;3.42;;;;;;;24.25;33.70;99480.81;5006203;28;20045;-71
2023/04/09 10:14:31;;;;;;;;;;;;;;;25.67;32.36;99480.69;5009688;28;20121;-71
2023/04/09 10:16:57;;;;;;;5.47;3.30;;;;;;;27.12;30.86;99484.72;5009528;28;19953;-69
2023/04/09 10:19:23;;;;;;;3.78;3.08;;;;;;;26.22;30.69;99478.66;5007948;28;20076;-68
2023/04/09 10:22:08;;;;;;;3.65;3.03;;;;;;;25.91;30.91;99472.53;5009287;28;20018;-68
2023/04/09 10:24:34;;;;;;;3.20;2.78;;;;;;;23.69;32.66;99461.41;5000385;28;20033;-69
2023/04/09 10:27:27;;;;;;;4.35;3.35;;;;;;;20.12;36.11;99490.75;5004604;28;20130;-68
2023/04/09 10:29:52;;;;;;;6.20;3.95;;;;;;;18.57;38.09;99496.09;4997190;28;20031;-70
2023/04/09 10:32:25;;;;;;;4.97;3.50;;;;;;;19.00;39.01;99494.91;4990323;28;20124;-70
2023/04/09 10:34:50;;;;;;;4.80;3.25;;;;;;;19.45;38.28;99474.13;5006739;28;20022;-71
2023/04/09 10:37:21;;;;;;;4.57;3.08;;;;;;;18.86;38.61;99479.78;5000720;28;20357;-70
2023/04/09 10:39:47;;;;;;;4.32;2.70;;;;;;;19.27;38.10;99483.38;5002738;28;20069;-71
2023/04/09 10:42:17;;;;;;;5.50;3.10;;;;;;;19.63;38.60;99484.09;4999103;28;20037;-70
2023/04/09 10:44:43;;;;;;;5.22;3.45;;;;;;;19.46;38.71;99471.13;5010670;28;21184;-71
2023/04/09 10:47:09;;;;;;;4.38;3.25;;;;;;;19.95;38.91;99476.16;5004306;28;20034;-71
2023/04/09 10:49:41;;;;;;;4.63;3.30;;;;;;;23.93;34.75;99447.91;4989034;28;20034;-71
2023/04/09 10:52:12;;;;;;;3.63;2.90;;;;;;;27.20;30.12;99463.84;5000045;28;20036;-71
2023/04/09 10:54:37;;;;;;;3.25;2.70;;;;;;;28.07;29.80;99451.47;5004427;28;20026;-68
2023/04/09 10:57:05;;;;;;;3.67;3.00;;;;;;;29.76;27.27;99446.22;5008524;28;20395;-69
2023/04/09 10:59:31;;;;;;;3.27;2.70;;;;;;;30.11;27.33;99447.31;5008457;28;20026;-68
2023/04/09 11:01:57;;;;;;;3.00;2.70;;;;;;;28.49;27.61;99458.00;5009707;28;20037;-71
2023/04/09 11:04:32;;;;;;;2.88;2.38;;;;;;;26.83;28.00;99460.63;5004716;28;20037;-71
2023/04/09 11:06:59;;;;;;;3.15;1.90;;;;;;;26.82;27.42;99456.19;5007303;28;20033;-71
2023/04/09 11:09:25;;;;;;;2.17;1.85;;;;;;;26.89;27.56;99451.09;5005796;28;20058;-71
2023/04/09 11:11:52;;;;;;;2.40;1.70;;;;;;;27.56;27.09;99444.69;4997573;28;20034;-69
2023/04/09 11:14:22;;;;;;;2.20;2.00;;;;;;;26.56;27.24;99452.03;5003528;28;20025;-71
2023/04/09 11:16:48;;;;;;;2.53;2.10;;;;;;;25.84;28.05;99426.81;5000915;28;20038;-68
2023/04/09 11:19:13;;;;;;;3.72;2.50;;;;;;;25.08;28.95;99442.75;5004381;28;20093;-68
2023/04/09 11:21:45;;;;;;;2.92;2.13;;;;;;;23.57;30.38;99449.75;5004021;28;20109;-70
2023/04/09 11:24:11;;;;;;;3.00;2.28;;;;;;;23.56;30.39;99437.06;5007158;28;20037;-71
2023/04/09 11:26:37;;;;;;;3.90;2.60;;;;;;;22.83;30.97;99450.84;5002869;28;20033;-71
2023/04/09 11:29:09;;;;;;;3.80;2.55;;;;;;;22.97;31.51;99441.00;5010481;28;20030;-71